Time;durP1;ratioP1;P1;durP2;ratioP2;P2;SDS_P1;SDS_P2;PMS_P1;PMS_P2;Temp;Humidity;BMP_temperature;BMP_pressure;BME280_temperature;BME280_humidity;BME280_pressure;Samples;Min_cycle;Max_cycle;Signal;HPM_P1;HPM_P2
2022/05/09 00:01:58;;;;;;;296.45;169.82;;;;;;;23.01;49.64;99908.44;5024947;28;20045;-51
2022/05/09 00:04:25;;;;;;;300.75;174.57;;;;;;;23.01;49.74;99913.19;5025389;28;20089;-52
2022/05/09 00:06:51;;;;;;;305.70;180.02;;;;;;;22.99;49.80;99909.94;5026173;28;20045;-48
2022/05/09 00:09:18;;;;;;;313.52;184.23;;;;;;;22.98;49.93;99899.97;5026081;28;20148;-47
2022/05/09 00:11:44;;;;;;;318.17;190.77;;;;;;;22.98;50.10;99900.78;5026009;28;20512;-51
2022/05/09 00:14:11;;;;;;;321.48;190.68;;;;;;;22.94;50.17;99903.47;5024762;28;20057;-50
2022/05/09 00:16:37;;;;;;;334.27;194.38;;;;;;;22.94;50.29;99914.63;5022073;28;20555;-48
2022/05/09 00:19:05;;;;;;;328.58;190.95;;;;;;;22.93;49.95;99920.53;5023410;28;20060;-51
2022/05/09 00:21:34;;;;;;;335.17;196.25;;;;;;;22.93;50.64;99926.13;5021131;28;20057;-51
2022/05/09 00:24:01;;;;;;;345.63;203.95;;;;;;;22.91;50.37;99918.13;5022160;28;20626;-52
2022/05/09 00:26:31;;;;;;;345.83;201.73;;;;;;;22.91;50.44;99909.75;5022884;28;20582;-53
2022/05/09 00:28:57;;;;;;;355.00;204.27;;;;;;;22.91;50.31;99908.94;5038717;28;20049;-51
2022/05/09 00:31:24;;;;;;;352.38;209.32;;;;;;;22.89;50.81;99911.28;5024431;28;20060;-54
2022/05/09 00:33:50;;;;;;;344.40;199.80;;;;;;;22.88;50.64;99916.06;5024413;28;20145;-54
2022/05/09 00:36:17;;;;;;;353.98;214.05;;;;;;;22.88;51.07;99910.47;5020620;28;20141;-55
2022/05/09 00:38:45;;;;;;;370.38;216.68;;;;;;;22.88;50.94;99906.88;5024645;28;20069;-51
2022/05/09 00:41:34;;;;;;;378.65;219.32;;;;;;;22.87;51.13;99903.28;5024755;28;20419;-52
2022/05/09 00:44:04;;;;;;;371.23;219.13;;;;;;;22.86;51.15;99909.22;5024324;28;20056;-53
2022/05/09 00:46:30;;;;;;;376.98;220.75;;;;;;;22.84;51.38;99903.19;5024599;28;20053;-51
2022/05/09 00:49:02;;;;;;;388.83;225.98;;;;;;;22.83;51.19;99907.13;5024581;28;20112;-51
2022/05/09 00:51:29;;;;;;;379.80;217.60;;;;;;;22.82;51.04;99919.44;5037450;28;20489;-52
2022/05/09 00:54:02;;;;;;;395.65;230.48;;;;;;;22.82;51.21;99903.53;5023334;28;20065;-47
2022/05/09 00:56:33;;;;;;;366.17;209.55;;;;;;;22.82;51.21;99908.31;5024046;28;20581;-47
2022/05/09 00:59:03;;;;;;;411.85;239.95;;;;;;;22.80;51.57;99903.06;5025493;28;20046;-50
2022/05/09 01:01:29;;;;;;;403.77;234.27;;;;;;;22.80;51.39;99911.44;5024931;28;20095;-53
2022/05/09 01:04:04;;;;;;;408.60;239.37;;;;;;;22.80;51.32;99917.00;5021832;28;20158;-53
2022/05/09 01:06:30;;;;;;;427.27;250.40;;;;;;;22.79;51.92;99912.59;5026480;28;20103;-54
2022/05/09 01:08:57;;;;;;;420.02;241.38;;;;;;;22.77;51.75;99918.53;5024074;28;20057;-53
2022/05/09 01:11:26;;;;;;;415.45;245.73;;;;;;;22.77;52.00;99917.72;5025171;28;20050;-52
2022/05/09 01:13:56;;;;;;;425.40;249.43;;;;;;;22.75;51.77;99920.06;5027756;28;20065;-53
2022/05/09 01:16:22;;;;;;;421.73;241.90;;;;;;;22.75;51.81;99911.69;5024952;28;20057;-53
2022/05/09 01:18:48;;;;;;;427.38;249.30;;;;;;;22.75;51.72;99914.47;5022591;28;20227;-53
2022/05/09 01:21:37;;;;;;;431.38;246.57;;;;;;;22.73;51.97;99914.03;4986301;28;20050;-52
2022/05/09 01:24:06;;;;;;;430.35;245.40;;;;;;;22.72;51.75;99918.78;4980416;28;20065;-54
2022/05/09 01:26:33;;;;;;;430.70;252.25;;;;;;;22.73;52.15;99919.59;4996381;28;20145;-53
2022/05/09 01:29:08;;;;;;;447.30;255.80;;;;;;;22.59;52.10;99904.09;5002620;28;20050;-49
2022/05/09 01:31:35;;;;;;;441.33;250.93;;;;;;;22.72;51.99;99916.00;5004237;28;20064;-48
2022/05/09 01:34:02;;;;;;;465.67;267.05;;;;;;;22.71;52.23;99910.78;5009168;28;20061;-53
2022/05/09 01:36:33;;;;;;;459.33;261.30;;;;;;;22.70;52.32;99907.19;5003808;28;20057;-52
2022/05/09 01:39:03;;;;;;;466.63;270.55;;;;;;;22.71;52.68;99903.22;5001809;28;20050;-53
2022/05/09 01:41:36;;;;;;;477.02;272.25;;;;;;;22.69;52.58;99901.97;5001828;28;20054;-53
2022/05/09 01:44:03;;;;;;;489.73;278.13;;;;;;;22.68;52.61;99923.44;5004928;28;20451;-50
2022/05/09 01:46:30;;;;;;;479.45;271.88;;;;;;;22.66;52.63;99918.22;5005530;28;20050;-51
2022/05/09 01:51:46;;;;;;;472.92;265.13;;;;;;;22.62;52.98;99910.91;5004776;28;20046;-53
2022/05/09 01:54:15;;;;;;;478.52;269.15;;;;;;;22.65;53.12;99915.81;5005190;28;20061;-52
2022/05/09 01:56:42;;;;;;;496.92;284.58;;;;;;;22.65;52.97;99924.16;5005928;28;20042;-52
2022/05/09 01:59:10;;;;;;;488.80;278.48;;;;;;;22.64;53.10;99928.91;5002698;28;20069;-51
2022/05/09 02:01:38;;;;;;;477.50;266.52;;;;;;;22.64;53.33;99928.13;5003742;28;20056;-53
2022/05/09 02:04:04;;;;;;;482.88;274.63;;;;;;;22.63;53.39;99937.63;5005975;28;20455;-53
2022/05/09 02:06:30;;;;;;;504.60;284.27;;;;;;;22.63;53.61;99934.81;5003117;28;20045;-51
2022/05/09 02:08:56;;;;;;;495.85;281.75;;;;;;;22.62;53.36;99933.22;5003394;28;20619;-54
2022/05/09 02:11:24;;;;;;;473.83;270.45;;;;;;;22.61;53.35;99942.72;5004020;28;20062;-53
2022/05/09 02:13:50;;;;;;;493.77;282.98;;;;;;;22.61;53.32;99937.97;5004390;28;20521;-50
2022/05/09 02:16:16;;;;;;;501.10;284.08;;;;;;;22.61;53.25;99935.19;5003559;28;20050;-50
2022/05/09 02:18:43;;;;;;;501.27;285.52;;;;;;;22.60;53.42;99938.31;5002379;28;20062;-50
2022/05/09 02:21:09;;;;;;;503.75;282.98;;;;;;;22.59;53.55;99928.34;5004088;28;20058;-50
2022/05/09 02:23:35;;;;;;;507.85;288.95;;;;;;;22.59;53.22;99936.72;5002532;28;20468;-52
2022/05/09 02:26:01;;;;;;;519.17;299.15;;;;;;;22.58;53.42;99932.31;5016274;28;20049;-53
2022/05/09 02:28:29;;;;;;;511.53;292.30;;;;;;;22.58;53.72;99929.50;5022310;28;20064;-51
2022/05/09 02:30:55;;;;;;;526.78;299.98;;;;;;;22.56;53.82;99929.88;5022693;28;20838;-53
2022/05/09 02:33:21;;;;;;;516.60;301.73;;;;;;;22.56;53.87;99926.28;5022043;28;20049;-51
2022/05/09 02:35:48;;;;;;;515.55;295.67;;;;;;;22.56;53.86;99915.97;5025527;28;20084;-51
2022/05/09 02:38:14;;;;;;;510.15;288.92;;;;;;;22.55;53.60;99917.09;5023674;28;20045;-54
2022/05/09 02:40:41;;;;;;;530.50;304.63;;;;;;;22.56;53.48;99912.34;5025138;28;20428;-54
2022/05/09 02:43:06;;;;;;;517.83;295.67;;;;;;;22.55;53.51;99919.09;5021036;28;20155;-54
2022/05/09 02:45:34;;;;;;;530.88;299.30;;;;;;;22.55;53.52;99914.31;5020967;28;20160;-48
2022/05/09 02:48:00;;;;;;;528.00;300.63;;;;;;;22.55;53.45;99914.31;5025936;28;20132;-53
2022/05/09 02:50:27;;;;;;;529.63;301.55;;;;;;;22.55;53.19;99910.72;5029494;28;20053;-52
2022/05/09 02:52:54;;;;;;;512.63;288.93;;;;;;;22.54;53.01;99909.09;5027243;28;20381;-53
2022/05/09 02:55:21;;;;;;;525.88;300.40;;;;;;;22.50;53.17;99907.03;5026490;28;20388;-52
2022/05/09 02:57:48;;;;;;;526.25;301.83;;;;;;;22.55;53.37;99916.31;5025750;28;20057;-52
2022/05/09 03:00:18;;;;;;;527.85;301.60;;;;;;;22.54;53.62;99923.03;5042899;28;20049;-51
2022/05/09 03:04:38;;;;;;;526.45;302.15;;;;;;;22.54;53.41;99923.84;5023454;28;20041;-51
2022/05/09 03:05:32;;;;;;;528.55;301.85;;;;;;;22.54;53.16;99925.81;5024691;28;20057;-52
2022/05/09 03:07:58;;;;;;;518.85;287.15;;;;;;;22.44;52.84;99913.97;5028462;28;20052;-52
2022/05/09 03:10:28;;;;;;;525.30;293.50;;;;;;;22.53;52.86;99922.22;5038151;28;20491;-54
2022/05/09 03:12:56;;;;;;;503.73;283.60;;;;;;;22.55;52.74;99921.88;5026947;28;20469;-53
2022/05/09 03:15:21;;;;;;;539.67;301.80;;;;;;;22.54;52.71;99920.25;5030188;28;20142;-52
2022/05/09 03:17:54;;;;;;;502.42;281.88;;;;;;;22.56;52.48;99921.53;5042792;28;20048;-54
2022/05/09 03:20:21;;;;;;;518.13;292.65;;;;;;;22.55;52.50;99919.88;5028250;28;20046;-51
2022/05/09 03:22:48;;;;;;;502.15;282.65;;;;;;;22.56;52.05;99918.75;5026836;28;20049;-51
2022/05/09 03:25:14;;;;;;;531.23;297.23;;;;;;;22.57;52.62;99919.53;5026335;28;20053;-53
2022/05/09 03:27:40;;;;;;;514.10;290.40;;;;;;;22.58;52.21;99923.94;5027644;28;20504;-51
2022/05/09 03:30:07;;;;;;;524.10;294.27;;;;;;;22.57;52.47;99928.72;5025488;28;20069;-49
2022/05/09 03:32:35;;;;;;;508.05;287.77;;;;;;;22.58;52.51;99924.78;5026214;28;20427;-53
2022/05/09 03:35:03;;;;;;;529.65;304.85;;;;;;;22.58;52.62;99927.56;5022570;28;20155;-54
2022/05/09 03:37:30;;;;;;;507.50;287.65;;;;;;;22.60;52.48;99938.31;5027118;28;20489;-50
2022/05/09 03:39:56;;;;;;;507.65;288.00;;;;;;;22.60;52.44;99932.75;5026730;28;20075;-54
2022/05/09 03:42:22;;;;;;;518.05;293.75;;;;;;;22.60;52.54;99939.16;5020913;28;20053;-53
2022/05/09 03:44:48;;;;;;;517.47;290.60;;;;;;;22.61;52.98;99935.19;5026075;28;20052;-51
2022/05/09 03:47:15;;;;;;;517.65;293.67;;;;;;;22.62;52.84;99938.78;5015294;28;20167;-51
2022/05/09 03:49:40;;;;;;;508.83;292.33;;;;;;;22.62;52.90;99933.22;5001887;28;20080;-53
2022/05/09 03:52:08;;;;;;;530.30;302.95;;;;;;;22.63;53.17;99940.41;5002529;28;20336;-52
2022/05/09 03:54:34;;;;;;;518.13;298.00;;;;;;;22.62;53.06;99942.41;4987166;28;20050;-54
2022/05/09 03:57:02;;;;;;;534.65;302.98;;;;;;;22.61;53.17;99937.97;5002799;28;20049;-51
2022/05/09 03:59:28;;;;;;;530.33;306.13;;;;;;;22.60;53.43;99941.13;5005943;28;20052;-51
2022/05/09 04:01:56;;;;;;;544.70;313.50;;;;;;;22.59;53.72;99947.84;5008252;28;20076;-52
2022/05/09 04:04:23;;;;;;;552.92;321.70;;;;;;;22.60;53.82;99953.09;5004774;28;20080;-51
2022/05/09 04:06:52;;;;;;;534.40;308.17;;;;;;;22.59;53.77;99950.63;5006021;28;20111;-51
2022/05/09 04:09:20;;;;;;;544.80;314.38;;;;;;;22.59;53.93;99945.06;5003799;28;20061;-50
2022/05/09 04:11:47;;;;;;;537.40;299.17;;;;;;;22.58;53.65;99952.63;5008978;28;20434;-52
2022/05/09 04:14:13;;;;;;;520.35;291.63;;;;;;;22.56;53.30;99954.97;4676954;28;10000590;-50
2022/05/09 04:16:51;;;;;;;543.15;306.83;;;;;;;22.58;53.30;99958.19;5012204;28;20087;-53
2022/05/09 04:19:17;;;;;;;510.88;289.17;;;;;;;22.58;52.94;99954.59;5011043;28;20042;-51
2022/05/09 04:21:43;;;;;;;535.92;297.40;;;;;;;22.57;52.79;99953.78;5005257;28;20064;-52
2022/05/09 04:24:09;;;;;;;509.42;284.25;;;;;;;22.57;52.36;99955.75;5008595;28;20053;-51
2022/05/09 04:26:37;;;;;;;523.75;291.77;;;;;;;22.58;52.24;99951.81;5009382;28;20046;-51
2022/05/09 04:29:03;;;;;;;514.95;287.63;;;;;;;22.59;52.20;99959.00;5005961;28;20394;-50
2022/05/09 04:31:30;;;;;;;516.90;291.02;;;;;;;22.60;52.35;99958.66;5019347;28;20041;-56
2022/05/09 04:33:58;;;;;;;522.58;291.63;;;;;;;22.63;52.02;99959.91;5018441;28;20080;-54
2022/05/09 04:36:26;;;;;;;538.83;307.83;;;;;;;22.66;52.32;99965.59;5020488;28;20132;-53
2022/05/09 04:38:52;;;;;;;544.17;312.60;;;;;;;22.69;52.72;99966.03;5011753;28;20057;-51
2022/05/09 04:41:19;;;;;;;544.92;311.15;;;;;;;22.68;52.73;99962.47;5001544;28;20432;-51
2022/05/09 04:43:47;;;;;;;548.50;317.73;;;;;;;22.72;52.86;99971.72;5001080;28;20045;-52
2022/05/09 04:46:15;;;;;;;542.63;314.77;;;;;;;22.74;52.70;99974.97;5002393;28;20049;-53
2022/05/09 04:48:42;;;;;;;539.50;314.23;;;;;;;22.75;52.84;99976.59;5001562;28;20562;-53
2022/05/09 04:51:08;;;;;;;533.47;297.20;;;;;;;22.77;52.36;99981.81;5000994;28;20045;-53
2022/05/09 04:53:34;;;;;;;564.60;326.65;;;;;;;22.79;53.09;99985.88;5000768;28;20054;-56
2022/05/09 04:56:01;;;;;;;548.60;314.67;;;;;;;22.83;52.59;99985.16;4999528;28;20127;-52
2022/05/09 04:58:28;;;;;;;554.35;316.13;;;;;;;22.84;52.40;99978.44;5001045;28;20392;-51
2022/05/09 05:00:55;;;;;;;539.15;305.13;;;;;;;22.88;52.27;99976.56;5002992;28;20045;-51
2022/05/09 05:03:23;;;;;;;540.00;309.73;;;;;;;22.90;52.51;99985.38;4970710;28;20116;-52
2022/05/09 05:05:52;;;;;;;541.50;312.67;;;;;;;22.89;52.47;99975.38;5004755;28;20052;-52
2022/05/09 05:08:18;;;;;;;538.53;313.90;;;;;;;22.91;52.59;99993.38;5003099;28;20057;-52
2022/05/09 05:10:44;;;;;;;549.40;313.50;;;;;;;22.93;52.54;99988.25;5003921;28;20046;-50
2022/05/09 05:13:12;;;;;;;543.80;308.02;;;;;;;22.95;52.50;99983.13;5004855;28;20058;-52
2022/05/09 05:15:39;;;;;;;561.38;321.63;;;;;;;22.96;52.53;99981.19;5004469;28;20456;-52
2022/05/09 05:18:06;;;;;;;546.33;314.10;;;;;;;23.00;52.45;99982.06;5004727;28;20787;-53
2022/05/09 05:20:33;;;;;;;555.33;318.27;;;;;;;23.04;52.46;99982.97;5008141;28;20152;-54
2022/05/09 05:22:58;;;;;;;539.38;304.63;;;;;;;23.06;52.09;99986.22;5024441;28;20088;-55
2022/05/09 05:25:27;;;;;;;548.03;321.20;;;;;;;23.14;52.08;99986.44;5023060;28;20148;-51
2022/05/09 05:27:53;;;;;;;547.88;315.23;;;;;;;23.19;51.98;99988.97;5023019;28;20125;-53
2022/05/09 05:30:20;;;;;;;543.08;312.50;;;;;;;23.22;51.82;99986.28;5006910;28;20520;-53
2022/05/09 05:32:47;;;;;;;557.42;320.58;;;;;;;23.22;51.54;99969.53;5001487;28;20464;-52
2022/05/09 05:35:17;;;;;;;559.47;322.58;;;;;;;23.29;51.72;99982.91;5006243;28;20057;-55
2022/05/09 05:37:43;;;;;;;551.97;313.63;;;;;;;23.33;51.25;99988.56;5004275;28;20038;-56
2022/05/09 05:40:10;;;;;;;536.92;305.27;;;;;;;23.32;50.68;99984.16;5005853;28;20050;-51
2022/05/09 05:42:38;;;;;;;561.28;319.52;;;;;;;23.34;51.24;99985.41;5003917;28;20152;-51
2022/05/09 05:45:05;;;;;;;562.05;319.95;;;;;;;23.37;51.15;99993.06;5023017;28;20049;-53
2022/05/09 05:47:31;;;;;;;558.58;318.38;;;;;;;23.37;51.19;99981.13;5024832;28;20041;-52
2022/05/09 05:49:57;;;;;;;554.00;317.50;;;;;;;23.39;51.04;99989.09;5023279;28;20052;-53
2022/05/09 05:52:25;;;;;;;558.10;327.45;;;;;;;23.39;51.03;99984.34;5022528;28;20051;-50
2022/05/09 05:54:51;;;;;;;;;;;;;;;23.41;50.98;99992.34;5020481;28;20424;-55
2022/05/09 05:57:22;;;;;;;544.25;304.88;;;;;;;23.41;50.55;99989.56;5038174;28;19974;-51
2022/05/09 05:59:50;;;;;;;563.30;323.35;;;;;;;23.40;50.95;99987.94;5021581;28;20052;-55
2022/05/09 06:02:16;;;;;;;561.60;319.88;;;;;;;23.40;51.02;99990.72;5025424;28;20123;-52
2022/05/09 06:04:42;;;;;;;569.13;327.23;;;;;;;23.41;51.17;99997.94;5024322;28;20049;-53
2022/05/09 06:07:08;;;;;;;562.63;323.07;;;;;;;23.42;51.19;99999.56;5022452;28;20049;-53
2022/05/09 06:09:35;;;;;;;563.95;321.38;;;;;;;23.44;50.91;99998.03;5024559;28;20041;-53
2022/05/09 06:12:01;;;;;;;;;;;;;;;23.48;50.90;99995.34;5023464;28;20049;-51
2022/05/09 06:14:27;;;;;;;570.00;324.60;;;;;;;23.49;50.69;100005.34;5023897;28;19925;-51
2022/05/09 06:16:54;;;;;;;547.42;311.65;;;;;;;23.54;50.41;100004.25;5022938;28;20140;-54
2022/05/09 06:19:21;;;;;;;581.00;333.75;;;;;;;23.57;50.57;100007.16;5020987;28;20061;-49
2022/05/09 06:21:47;;;;;;;558.17;323.63;;;;;;;23.61;50.45;100002.47;5040116;28;20307;-50
2022/05/09 06:24:13;;;;;;;558.23;322.17;;;;;;;23.68;50.23;100013.00;5028827;28;20042;-51
2022/05/09 06:26:42;;;;;;;536.40;306.75;;;;;;;23.72;49.95;99999.13;5017645;28;20076;-53
2022/05/09 06:29:08;;;;;;;567.95;327.90;;;;;;;23.75;50.23;99998.44;5023179;28;20056;-51
2022/05/09 06:31:34;;;;;;;555.93;323.53;;;;;;;23.81;49.97;100012.94;5026666;28;20103;-55
2022/05/09 06:34:01;;;;;;;553.53;317.27;;;;;;;23.83;50.04;100007.78;5024917;28;20087;-50
2022/05/09 06:36:27;;;;;;;563.17;322.98;;;;;;;23.84;49.85;100012.19;5029841;28;20148;-51
2022/05/09 06:38:54;;;;;;;542.20;316.25;;;;;;;23.83;49.69;100005.00;5026118;28;20403;-54
2022/05/09 06:41:20;;;;;;;;;;;;;;;23.88;49.83;100016.72;5025165;28;20153;-57
2022/05/09 06:43:47;;;;;;;576.00;329.63;;;;;;;23.90;49.88;100017.16;5003798;28;20044;-53
2022/05/09 06:46:13;;;;;;;570.63;328.75;;;;;;;23.92;49.72;100016.78;5003660;28;20112;-55
2022/05/09 06:48:39;;;;;;;579.60;340.15;;;;;;;23.96;50.04;100028.03;5011362;28;20038;-54
2022/05/09 06:51:05;;;;;;;561.03;326.55;;;;;;;23.99;49.82;100014.19;5025501;28;20053;-53
2022/05/09 06:53:31;;;;;;;563.67;326.10;;;;;;;24.06;49.78;100019.16;5026248;28;20420;-54
2022/05/09 06:55:58;;;;;;;564.92;325.75;;;;;;;24.08;49.69;100016.81;5026496;28;20052;-49
2022/05/09 06:58:25;;;;;;;573.65;332.45;;;;;;;24.11;49.51;100018.88;5022948;28;20175;-53
2022/05/09 07:00:53;;;;;;;578.35;337.85;;;;;;;24.15;49.75;100019.75;5006441;28;20292;-52
2022/05/09 07:03:20;;;;;;;565.88;323.35;;;;;;;24.15;49.38;100016.97;5026315;28;20381;-52
2022/05/09 07:05:48;;;;;;;569.40;329.13;;;;;;;24.20;49.38;100015.88;5020950;28;20542;-52
2022/05/09 07:08:14;;;;;;;576.08;336.90;;;;;;;24.25;49.46;100023.19;4667563;28;10000226;-50
2022/05/09 07:10:41;;;;;;;575.57;340.53;;;;;;;24.26;49.33;100020.00;5003969;28;20115;-49
2022/05/09 07:13:07;;;;;;;589.97;347.63;;;;;;;24.29;49.64;100018.50;5018435;28;20045;-49
2022/05/09 07:15:34;;;;;;;567.08;333.90;;;;;;;24.30;49.54;100034.91;5022883;28;20524;-54
2022/05/09 07:18:03;;;;;;;584.25;346.40;;;;;;;24.29;49.55;100029.66;5020029;28;20053;-54
2022/05/09 07:20:30;;;;;;;576.40;343.25;;;;;;;24.29;49.61;100018.50;5022374;28;20048;-54
2022/05/09 07:23:02;;;;;;;587.40;347.33;;;;;;;24.31;49.64;100024.53;5022767;28;20138;-53
2022/05/09 07:25:28;;;;;;;577.22;335.13;;;;;;;24.33;49.53;100028.56;5022025;28;20057;-53
2022/05/09 07:27:54;;;;;;;596.85;350.17;;;;;;;24.36;49.56;100018.66;5019675;28;20463;-50
2022/05/09 07:30:23;;;;;;;596.65;354.42;;;;;;;24.38;49.70;100019.13;5021598;28;20128;-53
2022/05/09 07:32:51;;;;;;;597.10;349.58;;;;;;;24.43;49.85;100024.41;5018318;28;20171;-52
2022/05/09 07:35:18;;;;;;;599.05;354.75;;;;;;;24.41;49.88;100014.75;5023756;28;20052;-51
2022/05/09 07:37:46;;;;;;;600.42;354.52;;;;;;;24.39;49.60;100028.28;5019154;28;20045;-52
2022/05/09 07:40:15;;;;;;;594.45;350.38;;;;;;;24.44;49.58;100025.22;5038385;28;20068;-53
2022/05/09 07:42:42;;;;;;;591.92;351.38;;;;;;;24.49;49.56;100033.31;5003238;28;20053;-49
2022/05/09 07:45:11;;;;;;;610.30;363.63;;;;;;;24.54;49.55;100035.03;4999997;28;20579;-50
2022/05/09 07:47:39;;;;;;;610.10;364.23;;;;;;;24.60;49.76;100030.75;5004187;28;20046;-50
2022/05/09 07:50:06;;;;;;;605.10;361.58;;;;;;;24.69;49.50;100033.34;5006201;28;20046;-52
2022/05/09 07:52:33;;;;;;;606.63;356.52;;;;;;;24.72;49.61;100013.88;5007071;28;20061;-52
2022/05/09 07:54:59;;;;;;;604.63;360.33;;;;;;;24.80;49.41;100020.47;5007568;28;20046;-48
2022/05/09 07:57:26;;;;;;;607.63;358.05;;;;;;;24.79;49.49;100013.25;5021680;28;20052;-51
2022/05/09 07:59:52;;;;;;;604.25;354.63;;;;;;;24.75;49.53;100024.31;5024683;28;20528;-54
2022/05/09 08:02:18;;;;;;;608.70;362.35;;;;;;;24.71;49.56;100020.63;5026510;28;20052;-52
2022/05/09 08:04:43;;;;;;;600.28;357.42;;;;;;;24.69;49.78;100027.75;5024300;28;20053;-54
2022/05/09 08:07:10;;;;;;;613.92;368.13;;;;;;;24.66;49.75;100018.09;5021265;28;20732;-54
2022/05/09 08:09:37;;;;;;;606.13;363.17;;;;;;;24.66;49.79;100022.91;5015255;28;20512;-63
2022/05/09 08:12:05;;;;;;;611.08;368.17;;;;;;;24.66;49.94;100028.50;5017351;28;20340;-62
2022/05/09 08:14:31;;;;;;;610.67;358.85;;;;;;;24.67;49.64;100010.56;5021599;28;20061;-64
2022/05/09 08:16:57;;;;;;;592.78;349.60;;;;;;;24.75;49.11;100024.31;5024478;28;20053;-52
2022/05/09 08:19:23;;;;;;;588.67;350.02;;;;;;;24.84;48.74;100018.53;5020611;28;20049;-63
2022/05/09 08:21:52;;;;;;;606.97;353.00;;;;;;;24.90;48.74;100019.06;5004543;28;20056;-63
2022/05/09 08:24:18;;;;;;;589.58;341.65;;;;;;;24.99;48.59;100024.44;5005479;28;20046;-63
2022/05/09 08:26:45;;;;;;;586.53;344.83;;;;;;;25.05;48.18;100014.56;5036767;28;20088;-63
2022/05/09 08:29:11;;;;;;;583.60;342.75;;;;;;;25.09;48.16;100015.47;5021874;28;20145;-55
2022/05/09 08:31:37;;;;;;;572.00;331.17;;;;;;;25.11;48.16;100023.47;5011019;28;20503;-51
2022/05/09 08:34:03;;;;;;;571.53;330.23;;;;;;;25.15;47.52;100027.16;5006369;28;20053;-55
2022/05/09 08:39:15;;;;;;;577.35;336.35;;;;;;;25.34;47.15;100009.53;5007163;28;20045;-53
2022/05/09 08:41:54;;;;;;;561.00;319.90;;;;;;;25.44;46.58;99999.72;5020578;28;20050;-55
2022/05/09 08:44:27;;;;;;;536.92;306.00;;;;;;;25.59;46.03;100015.59;5015821;28;20536;-53
2022/05/09 08:47:10;;;;;;;545.55;316.45;;;;;;;25.76;45.73;100021.91;5005700;28;20073;-53
2022/05/09 08:49:45;;;;;;;547.83;314.30;;;;;;;25.86;45.27;100018.47;5021182;28;20038;-53
2022/05/09 08:52:19;;;;;;;537.30;311.02;;;;;;;25.92;44.98;100027.38;5005364;28;20049;-51
2022/05/09 08:54:45;;;;;;;563.53;322.98;;;;;;;25.93;45.06;100031.00;5007170;28;20115;-52
2022/05/09 08:57:15;;;;;;;534.58;311.02;;;;;;;25.97;44.82;100029.84;5019173;28;20053;-53
2022/05/09 08:59:48;;;;;;;542.47;311.40;;;;;;;26.08;44.51;100026.44;5002844;28;20433;-54
2022/05/09 09:02:18;;;;;;;536.90;309.95;;;;;;;26.19;44.03;100028.25;5002795;28;20510;-53
2022/05/09 09:04:51;;;;;;;533.78;303.02;;;;;;;26.33;43.57;100036.06;5003983;28;20417;-55
2022/05/09 09:07:40;;;;;;;535.58;306.58;;;;;;;26.51;43.08;100046.75;5002370;28;20056;-51
2022/05/09 09:10:17;;;;;;;517.35;290.90;;;;;;;26.68;42.88;100044.56;4993725;28;20050;-52
2022/05/09 09:12:58;;;;;;;516.92;294.65;;;;;;;26.84;42.25;100052.78;4992575;28;20497;-54
2022/05/09 09:15:32;;;;;;;499.83;284.77;;;;;;;26.99;41.60;100062.22;4988738;28;20064;-51
2022/05/09 09:18:29;;;;;;;430.90;240.73;;;;;;;27.16;40.69;100053.22;4994140;28;20543;-54
2022/05/09 09:21:00;;;;;;;429.50;238.95;;;;;;;27.29;39.78;100055.78;5001486;28;20377;-53
2022/05/09 09:24:00;;;;;;;429.90;234.50;;;;;;;27.41;39.50;100060.31;5000077;28;20048;-52
2022/05/09 09:26:33;;;;;;;413.60;225.65;;;;;;;27.54;38.84;100049.66;5002724;28;20065;-53
2022/05/09 09:29:08;;;;;;;400.88;221.40;;;;;;;27.56;38.58;100052.91;5004538;28;20062;-61
2022/05/09 09:31:36;;;;;;;386.80;208.90;;;;;;;27.63;38.25;100068.97;5021537;28;20053;-50
2022/05/09 09:34:13;;;;;;;392.45;213.38;;;;;;;27.64;37.99;100076.25;5009120;28;20057;-63
2022/05/09 09:36:46;;;;;;;394.65;215.02;;;;;;;27.59;38.14;100069.75;5003392;28;20052;-62
2022/05/09 09:39:17;;;;;;;377.92;205.45;;;;;;;27.53;38.34;100085.34;5003445;28;20057;-63
2022/05/09 09:41:43;;;;;;;385.20;211.88;;;;;;;27.45;38.42;100092.03;5003416;28;20555;-62
2022/05/09 09:44:15;;;;;;;376.43;205.60;;;;;;;27.36;38.59;100099.97;5004257;28;20057;-62
2022/05/09 09:47:02;;;;;;;387.83;206.80;;;;;;;27.24;38.64;100099.00;5003827;28;20308;-62
2022/05/09 09:49:28;;;;;;;368.85;201.63;;;;;;;27.17;38.69;100127.00;5019926;28;20054;-62
2022/05/09 09:51:55;;;;;;;347.65;192.98;;;;;;;27.11;38.65;100118.09;5005228;28;20096;-63
2022/05/09 09:54:25;;;;;;;362.80;199.30;;;;;;;27.17;38.33;100110.97;5003003;28;20046;-62
2022/05/09 09:56:51;;;;;;;367.08;201.20;;;;;;;27.32;38.21;100123.19;5026370;28;20501;-61
2022/05/09 09:59:23;;;;;;;343.38;185.48;;;;;;;27.40;38.15;100128.88;5026601;28;20451;-63
2022/05/09 10:02:08;;;;;;;343.13;190.20;;;;;;;27.39;38.17;100127.25;5024764;28;20290;-64
2022/05/09 10:04:34;;;;;;;339.77;185.10;;;;;;;27.39;37.77;100132.88;5026089;28;20041;-63
2022/05/09 10:07:03;;;;;;;353.48;193.85;;;;;;;27.32;38.09;100128.78;5026022;28;20052;-63
2022/05/09 10:09:36;;;;;;;360.42;196.25;;;;;;;27.27;37.93;100139.53;5023386;28;20045;-55
2022/05/09 10:12:21;;;;;;;332.63;180.18;;;;;;;27.21;37.85;100144.69;5020034;28;20052;-54
2022/05/09 10:14:50;;;;;;;362.38;201.10;;;;;;;27.24;38.09;100140.28;5011124;28;20049;-52
2022/05/09 10:17:20;;;;;;;360.25;203.15;;;;;;;27.32;38.17;100142.81;5016570;28;20065;-53
2022/05/09 10:19:46;;;;;;;352.70;201.73;;;;;;;27.34;38.41;100148.03;5024210;28;20523;-53
2022/05/09 10:25:07;;;;;;;353.77;203.00;;;;;;;27.49;37.92;100159.44;4656348;28;10000433;-54
2022/05/09 10:27:35;;;;;;;350.25;198.05;;;;;;;27.55;38.00;100155.97;5000001;28;20089;-53
2022/05/09 10:30:06;;;;;;;348.45;202.27;;;;;;;27.54;37.97;100148.72;5003882;28;20057;-52
2022/05/09 10:32:41;;;;;;;360.42;199.20;;;;;;;27.49;38.06;100160.28;5004075;28;20104;-53
2022/05/09 10:35:15;;;;;;;351.13;195.25;;;;;;;27.41;38.05;100148.16;4983641;28;20050;-55
2022/05/09 10:37:48;;;;;;;341.02;184.73;;;;;;;27.34;38.02;100153.66;5004841;28;20049;-54
2022/05/09 10:40:19;;;;;;;334.52;180.43;;;;;;;27.32;37.40;100161.66;5008616;28;20107;-49
2022/05/09 10:42:52;;;;;;;338.05;170.02;;;;;;;27.32;37.25;100140.03;5006888;28;20046;-63
2022/05/09 10:45:24;;;;;;;303.75;161.82;;;;;;;27.40;37.05;100142.91;5005635;28;20196;-62
2022/05/09 10:47:54;;;;;;;294.73;155.52;;;;;;;27.52;36.52;100147.44;5003239;28;20094;-62
2022/05/09 10:50:27;;;;;;;300.25;152.88;;;;;;;27.67;36.00;100145.66;5009731;28;20110;-64
2022/05/09 10:53:05;;;;;;;294.15;154.43;;;;;;;27.82;35.81;100133.41;5023659;28;20045;-63
2022/05/09 10:55:35;;;;;;;274.13;145.77;;;;;;;27.96;35.31;100131.94;5005831;28;20512;-63
2022/05/09 10:58:08;;;;;;;271.63;143.18;;;;;;;28.05;34.82;100134.41;5005070;28;20037;-63
2022/05/09 11:00:43;;;;;;;270.67;140.38;;;;;;;28.08;34.59;100137.25;5006483;28;20046;-63
2022/05/09 11:03:20;;;;;;;261.83;137.25;;;;;;;28.06;34.61;100148.06;5006912;28;20056;-63
2022/05/09 11:06:02;;;;;;;256.45;136.20;;;;;;;27.97;34.65;100150.41;5006550;28;20064;-64
2022/05/09 11:08:39;;;;;;;242.57;128.75;;;;;;;27.85;34.70;100155.09;5007261;28;20505;-64
2022/05/09 11:11:14;;;;;;;244.52;126.32;;;;;;;27.80;34.70;100158.25;5007587;28;20042;-64
2022/05/09 11:13:54;;;;;;;239.27;125.47;;;;;;;28.01;33.97;100159.66;5022545;28;20062;-54
2022/05/09 11:16:33;;;;;;;245.05;124.72;;;;;;;28.28;33.46;100151.13;5006829;28;20077;-62